Time,TemperatureF,DewpointF,PressureIn,WindDirection,WindDirectionDegrees,WindSpeedMPH,WindSpeedGustMPH,Humidity,HourlyPrecipIn,Conditions,Clouds,dailyrainin,SoftwareType,DateUTC
2013-04-06 00:16:00,49.1,28.7,29.99,East,90,3.2,-999.0,45,-99.99,,,0.00,Acu-Link.com,2013-04-06 04:16:00,
2013-04-06 00:31:00,48.2,28.9,29.99,ESE,112,3.7,-999.0,47,-99.99,,,0.00,Acu-Link.com,2013-04-06 04:31:00,
2013-04-06 00:47:00,47.5,28.8,29.99,ESE,112,1.7,-999.0,48,-99.99,,,0.00,Acu-Link.com,2013-04-06 04:47:00,
2013-04-06 01:02:00,47.1,28.9,29.99,ENE,67,2.2,-999.0,49,-99.99,,,0.00,Acu-Link.com,2013-04-06 05:02:00,
2013-04-06 01:17:00,46.8,29.2,29.99,ENE,67,4.7,-999.0,50,-99.99,,,0.00,Acu-Link.com,2013-04-06 05:17:00,
2013-04-06 01:33:00,46.6,29.0,30.00,NNE,22,2.7,-999.0,50,-99.99,,,0.00,Acu-Link.com,2013-04-06 05:33:00,
2013-04-06 01:48:00,45.9,28.8,30.01,NE,45,2.7,-999.0,51,-99.99,,,0.00,Acu-Link.com,2013-04-06 05:48:00,
2013-04-06 02:03:00,45.5,28.9,30.01,East,90,3.7,-999.0,52,-99.99,,,0.00,Acu-Link.com,2013-04-06 06:03:00,
2013-04-06 02:18:00,45.0,28.9,30.01,ESE,112,3.2,-999.0,53,-99.99,,,0.00,Acu-Link.com,2013-04-06 06:18:00,
2013-04-06 02:49:00,44.8,28.7,30.01,North,0,3.7,-999.0,53,-99.99,,,0.00,Acu-Link.com,2013-04-06 06:49:00,
2013-04-06 03:04:00,44.6,28.5,30.00,East,90,1.7,-999.0,53,-99.99,,,0.00,Acu-Link.com,2013-04-06 07:04:00,
2013-04-06 03:19:00,44.8,28.7,30.00,NNE,22,2.7,-999.0,53,-99.99,,,0.00,Acu-Link.com,2013-04-06 07:19:00,
2013-04-06 03:34:00,45.1,28.1,30.01,NNW,337,3.7,-999.0,51,-99.99,,,0.00,Acu-Link.com,2013-04-06 07:34:00,
2013-04-06 03:50:00,44.8,27.8,30.01,ENE,67,2.7,-999.0,51,-99.99,,,0.00,Acu-Link.com,2013-04-06 07:50:00,
2013-04-06 04:07:00,45.1,28.1,30.01,NW,315,2.7,-999.0,51,-99.99,,,0.00,Acu-Link.com,2013-04-06 08:07:00,
2013-04-06 04:22:00,45.0,28.0,30.01,NNE,22,3.7,-999.0,51,-99.99,,,0.00,Acu-Link.com,2013-04-06 08:22:00,
2013-04-06 04:37:00,44.4,27.4,30.02,SE,135,2.7,-999.0,51,-99.99,,,0.00,Acu-Link.com,2013-04-06 08:37:00,
2013-04-06 04:52:00,44.2,27.7,30.02,ESE,112,2.2,-999.0,52,-99.99,,,0.00,Acu-Link.com,2013-04-06 08:52:00,
2013-04-06 05:07:00,44.1,27.6,30.01,NW,315,1.7,-999.0,52,-99.99,,,0.00,Acu-Link.com,2013-04-06 09:07:00,
2013-04-06 05:22:00,43.9,27.4,30.02,North,0,2.7,-999.0,52,-99.99,,,0.00,Acu-Link.com,2013-04-06 09:22:00,
2013-04-06 05:38:00,43.3,27.3,30.02,ESE,112,2.7,-999.0,53,-99.99,,,0.00,Acu-Link.com,2013-04-06 09:38:00,
2013-04-06 05:53:00,43.2,27.2,30.03,ESE,112,3.2,-999.0,53,-99.99,,,0.00,Acu-Link.com,2013-04-06 09:53:00,
2013-04-06 06:08:00,42.8,27.3,30.02,ESE,112,3.7,-999.0,54,-99.99,,,0.00,Acu-Link.com,2013-04-06 10:08:00,
2013-04-06 06:54:00,41.9,26.9,30.03,SSE,157,2.2,-999.0,55,-99.99,,,0.00,Acu-Link.com,2013-04-06 10:54:00,
2013-04-06 07:09:00,41.5,27.0,30.03,ESE,112,3.7,-999.0,56,-99.99,,,0.00,Acu-Link.com,2013-04-06 11:09:00,
2013-04-06 07:25:00,41.5,27.0,30.04,ESE,112,4.7,-999.0,56,-99.99,,,0.00,Acu-Link.com,2013-04-06 11:25:00,
2013-04-06 07:40:00,41.7,27.2,30.04,South,180,3.2,-999.0,56,-99.99,,,0.00,Acu-Link.com,2013-04-06 11:40:00,
2013-04-06 07:55:00,42.3,27.3,30.05,ESE,112,3.2,-999.0,55,-99.99,,,0.00,Acu-Link.com,2013-04-06 11:55:00,
2013-04-06 08:10:00,42.8,27.3,30.05,SE,135,6.3,-999.0,54,-99.99,,,0.00,Acu-Link.com,2013-04-06 12:10:00,
2013-04-06 08:25:00,43.9,27.9,30.05,East,90,5.3,-999.0,53,-99.99,,,0.00,Acu-Link.com,2013-04-06 12:25:00,
2013-04-06 08:41:00,44.8,28.3,30.05,SE,135,7.3,-999.0,52,-99.99,,,0.00,Acu-Link.com,2013-04-06 12:41:00,
2013-04-06 09:41:00,50.4,30.9,30.05,ENE,67,4.7,-999.0,47,-99.99,,,0.00,Acu-Link.com,2013-04-06 13:41:00,
2013-04-06 09:57:00,50.9,31.4,30.05,ESE,112,7.3,-999.0,47,-99.99,,,0.00,Acu-Link.com,2013-04-06 13:57:00,
2013-04-06 10:12:00,53.2,32.4,30.04,ESE,112,6.3,-999.0,45,-99.99,,,0.00,Acu-Link.com,2013-04-06 14:12:00,
2013-04-06 10:27:00,53.4,32.0,30.03,East,90,6.3,-999.0,44,-99.99,,,0.00,Acu-Link.com,2013-04-06 14:27:00,
2013-04-06 10:42:00,55.4,33.3,30.03,ESE,112,9.4,-999.0,43,-99.99,,,0.00,Acu-Link.com,2013-04-06 14:42:00,
2013-04-06 10:57:00,56.3,34.7,30.03,West,270,2.2,-999.0,44,-99.99,,,0.00,Acu-Link.com,2013-04-06 14:57:00,
2013-04-06 11:13:00,56.1,35.1,30.03,ESE,112,6.8,-999.0,45,-99.99,,,0.00,Acu-Link.com,2013-04-06 15:13:00,
2013-04-06 11:28:00,57.7,35.4,30.03,ESE,112,3.2,-999.0,43,-99.99,,,0.00,Acu-Link.com,2013-04-06 15:28:00,
2013-04-06 11:43:00,58.8,35.8,30.03,ESE,112,4.2,-999.0,42,-99.99,,,0.00,Acu-Link.com,2013-04-06 15:43:00,
2013-04-06 12:29:00,63.1,39.6,30.01,SSE,157,5.3,-999.0,42,-99.99,,,0.00,Acu-Link.com,2013-04-06 16:29:00,
2013-04-06 12:44:00,64.8,38.6,30.00,SE,135,5.3,-999.0,38,-99.99,,,0.00,Acu-Link.com,2013-04-06 16:44:00,
2013-04-06 12:59:00,66.0,39.0,30.00,WSW,247,4.7,-999.0,37,-99.99,,,0.00,Acu-Link.com,2013-04-06 16:59:00,
2013-04-06 13:14:00,67.8,40.6,29.99,South,180,6.8,-999.0,37,-99.99,,,0.00,Acu-Link.com,2013-04-06 17:14:00,
2013-04-06 13:45:00,68.4,39.7,29.97,SSE,157,1.7,-999.0,35,-99.99,,,0.00,Acu-Link.com,2013-04-06 17:45:00,
2013-04-06 14:00:00,71.1,41.3,29.96,SSE,157,5.3,-999.0,34,-99.99,,,0.00,Acu-Link.com,2013-04-06 18:00:00,
2013-04-06 14:15:00,68.5,39.0,29.95,NW,315,4.2,-999.0,34,-99.99,,,0.00,Acu-Link.com,2013-04-06 18:15:00,
2013-04-06 14:30:00,72.0,38.9,29.94,ESE,112,3.7,-999.0,30,-99.99,,,0.00,Acu-Link.com,2013-04-06 18:30:00,
2013-04-06 14:46:00,72.7,38.6,29.93,East,90,4.7,-999.0,29,-99.99,,,0.00,Acu-Link.com,2013-04-06 18:46:00,
2013-04-06 15:01:00,73.6,39.4,29.92,East,90,4.2,-999.0,29,-99.99,,,0.00,Acu-Link.com,2013-04-06 19:01:00,
2013-04-06 15:31:00,72.5,38.4,29.91,ENE,67,6.8,-999.0,29,-99.99,,,0.00,Acu-Link.com,2013-04-06 19:31:00,
2013-04-06 15:46:00,74.3,40.0,29.90,South,180,8.9,-999.0,29,-99.99,,,0.00,Acu-Link.com,2013-04-06 19:46:00,
2013-04-06 16:17:00,75.6,41.1,29.88,West,270,2.7,-999.0,29,-99.99,,,0.00,Acu-Link.com,2013-04-06 20:17:00,
2013-04-06 16:32:00,76.1,41.5,29.88,SW,225,3.7,-999.0,29,-99.99,,,0.00,Acu-Link.com,2013-04-06 20:32:00,
2013-04-06 16:47:00,74.7,40.3,29.87,SSE,157,9.4,-999.0,29,-99.99,,,0.00,Acu-Link.com,2013-04-06 20:47:00,
2013-04-06 17:03:00,73.4,40.9,29.86,SSW,202,4.2,-999.0,31,-99.99,,,0.00,Acu-Link.com,2013-04-06 21:03:00,
2013-04-06 17:18:00,73.2,39.9,29.86,South,180,2.7,-999.0,30,-99.99,,,0.00,Acu-Link.com,2013-04-06 21:18:00,
2013-04-06 17:33:00,72.1,38.9,29.86,SSE,157,2.7,-999.0,30,-99.99,,,0.00,Acu-Link.com,2013-04-06 21:33:00,
2013-04-06 17:48:00,71.8,41.1,29.85,South,180,5.3,-999.0,33,-99.99,,,0.00,Acu-Link.com,2013-04-06 21:48:00,
2013-04-06 18:19:00,71.1,41.3,29.85,SSW,202,4.2,-999.0,34,-99.99,,,0.00,Acu-Link.com,2013-04-06 22:19:00,
2013-04-06 19:04:00,68.9,40.8,29.83,ESE,112,6.3,-999.0,36,-99.99,,,0.00,Acu-Link.com,2013-04-06 23:04:00,
2013-04-06 19:19:00,68.4,40.4,29.82,SW,225,3.7,-999.0,36,-99.99,,,0.00,Acu-Link.com,2013-04-06 23:19:00,
2013-04-06 19:35:00,68.0,40.8,29.82,SE,135,4.7,-999.0,37,-99.99,,,0.00,Acu-Link.com,2013-04-06 23:35:00,
2013-04-06 19:50:00,67.3,40.1,29.82,South,180,2.7,-999.0,37,-99.99,,,0.00,Acu-Link.com,2013-04-06 23:50:00,
2013-04-06 20:05:00,66.2,39.8,29.82,SSW,202,1.7,-999.0,38,-99.99,,,0.00,Acu-Link.com,2013-04-07 00:05:00,
2013-04-06 20:20:00,64.9,40.0,29.82,SSE,157,2.7,-999.0,40,-99.99,,,0.00,Acu-Link.com,2013-04-07 00:20:00,
2013-04-06 20:35:00,63.5,40.0,29.82,South,180,0.0,-999.0,42,-99.99,,,0.00,Acu-Link.com,2013-04-07 00:35:00,
2013-04-06 20:51:00,62.2,38.8,29.81,SE,135,0.0,-999.0,42,-99.99,,,0.00,Acu-Link.com,2013-04-07 00:51:00,
2013-04-06 21:21:00,61.5,37.0,29.82,SSE,157,3.2,-999.0,40,-99.99,,,0.00,Acu-Link.com,2013-04-07 01:21:00,
2013-04-06 21:52:00,61.0,35.9,29.83,West,270,2.2,-999.0,39,-99.99,,,0.00,Acu-Link.com,2013-04-07 01:52:00,
2013-04-06 22:07:00,61.5,35.7,29.83,NNE,22,3.7,-999.0,38,-99.99,,,0.00,Acu-Link.com,2013-04-07 02:07:00,
2013-04-06 22:22:00,61.9,36.0,29.83,SSW,202,4.7,-999.0,38,-99.99,,,0.00,Acu-Link.com,2013-04-07 02:22:00,
2013-04-06 22:52:00,61.7,35.8,29.84,ESE,112,4.2,-999.0,38,-99.99,,,0.00,Acu-Link.com,2013-04-07 02:52:00,
2013-04-06 23:08:00,61.0,35.9,29.84,WSW,247,5.3,-999.0,39,-99.99,,,0.00,Acu-Link.com,2013-04-07 03:08:00,
2013-04-06 23:23:00,61.0,35.9,29.85,North,0,2.2,-999.0,39,-99.99,,,0.00,Acu-Link.com,2013-04-07 03:23:00,
2013-04-06 23:38:00,60.8,36.3,29.85,NNW,337,8.9,-999.0,40,-99.99,,,0.00,Acu-Link.com,2013-04-07 03:38:00,
2013-04-06 23:53:00,60.6,36.1,29.86,West,270,4.2,-999.0,40,-99.99,,,0.00,Acu-Link.com,2013-04-07 03:53:00,